Airfield :







YOU CAN JOIN US ON...

 
LOGIN :

Register | Disclaimer

   EN    FR    IT 

 









Legend :    VFR   Marginal VFR   IFR   Intensive IFR   Very Intensive IFR
Visi :
Ceiling :
>= 8 km
>= 3000ft
5 to 8 km
1000 to 3000 ft
1500m to 5 km
500 to 1000 ft
800 to 1500m
200 to 500 ft
< 800m
< 200 ft
Symbols :   Thunderstorms  Fog  Heavy snow  Heavy precipitations  Wind > 20 kt







- Airport Elevation : 180 ft
- IATA code : YZV


CYZV - Sept-Iles

CURRENT METAR :
  • 210009Z 08007KT 30SM -RA FEW030 OVC052 05/01 A2983 RMK CU1SC8 CU TR SLP107

EXPIRED METARs :
  • 202300Z 08007KT 30SM FEW030 OVC054 06/02 A2983 RMK CU1SC7 SLP105
  • 202200Z 09006KT 20SM FEW015 SCT030 OVC055 07/04 A2983 RMK SF1SC3SC5 SF TR SLP104

TAF TAF CYZV
Valid from the 21 at 00:00 until the 22 at 00:00 UTC


202338Z 2100/2124 08010KT P6SM FEW015 SCT030 OVC050
TEMPO 2100/2110 4SM -RA BR BKN008 OVC015
FM211000 07015G25KT 6SM -RA BR SCT006 OVC010
TEMPO 2110/2118 2SM -RA BR OVC006
FM211800 05010G20KT P6SM -RA SCT006 OVC030
BECMG 2118/2120 01008KT RMK NXT FCST BY 210600Z
CZUL FIR / North America



MET'MAP, your aeronautical weather chart ! - Copyright ORBIFLY December 2007 - Disclaimer

ORBIFLY MET'MAP TEAM :

Programming & Development : Alexandra Zaïnal
Concept & Development : Baudouin d'Aumeries
Co-Development & Prog : Marc-Olivier Méhu
Technical & hardware support : Manuel Goepfert

Contact : metmap@orbifly.com




SOURCES & CREDITS :

   NOAA